createdAt,value
2022-11-10T00:00:25.353Z,13.80
2022-11-10T00:03:13.731Z,15.55
2022-11-10T00:06:03.555Z,16.70
2022-11-10T00:08:50.561Z,14.63
2022-11-10T00:11:38.015Z,17.45
2022-11-10T00:14:42.805Z,14.35
2022-11-10T00:17:38.110Z,12.70
2022-11-10T00:20:25.495Z,14.02
2022-11-10T00:23:12.792Z,13.37
2022-11-10T00:26:00.964Z,12.20
2022-11-10T00:28:48.057Z,12.48
2022-11-10T00:31:35.138Z,11.38
2022-11-10T00:34:23.799Z,11.93
2022-11-10T00:37:11.476Z,10.53
2022-11-10T00:39:58.506Z,14.25
2022-11-10T00:42:46.387Z,11.85
2022-11-10T00:45:33.854Z,13.57
2022-11-10T00:48:21.374Z,11.77
2022-11-10T00:51:16.906Z,11.60
2022-11-10T00:54:03.887Z,14.02
2022-11-10T00:56:51.538Z,13.32
2022-11-10T00:59:39.096Z,11.38
2022-11-10T01:02:26.444Z,11.82
2022-11-10T01:05:13.554Z,10.77
2022-11-10T01:08:02.571Z,11.27
2022-11-10T01:10:49.955Z,11.25
2022-11-10T01:13:38.460Z,13.13
2022-11-10T01:16:29.020Z,9.45
2022-11-10T01:19:16.212Z,11.60
2022-11-10T01:22:03.171Z,10.80
2022-11-10T01:24:52.257Z,9.13
2022-11-10T01:27:39.937Z,10.20
2022-11-10T01:30:27.244Z,9.40
2022-11-10T01:33:14.398Z,10.70
2022-11-10T01:36:02.381Z,9.30
2022-11-10T01:38:49.561Z,10.43
2022-11-10T01:41:38.082Z,11.18
2022-11-10T01:44:27.416Z,10.85
2022-11-10T01:47:15.357Z,8.53
2022-11-10T01:50:02.723Z,7.82
2022-11-10T01:52:55.319Z,8.90
2022-11-10T01:55:46.577Z,8.40
2022-11-10T01:58:41.429Z,9.18
2022-11-10T02:01:29.135Z,8.27
2022-11-10T02:04:19.175Z,7.93
2022-11-10T02:07:08.163Z,7.53
2022-11-10T02:09:55.731Z,9.30
2022-11-10T02:12:43.478Z,7.32
2022-11-10T02:15:52.343Z,7.90
2022-11-10T02:18:40.222Z,7.60
2022-11-10T02:21:28.806Z,7.93
2022-11-10T02:24:17.010Z,12.05
2022-11-10T02:27:04.615Z,8.93
2022-11-10T02:29:51.711Z,7.23
2022-11-10T02:32:38.800Z,7.40
2022-11-10T02:35:26.021Z,7.03
2022-11-10T02:38:15.734Z,6.70
2022-11-10T02:41:02.997Z,6.78
2022-11-10T02:43:50.439Z,6.57
2022-11-10T02:46:38.647Z,6.90
2022-11-10T02:49:25.769Z,6.30
2022-11-10T02:52:12.763Z,6.95
2022-11-10T02:55:01.316Z,5.88
2022-11-10T02:57:48.542Z,6.43
2022-11-10T03:00:36.058Z,7.78
2022-11-10T03:03:23.690Z,5.95
2022-11-10T03:06:11.538Z,7.35
2022-11-10T03:08:59.226Z,19.13
2022-11-10T03:11:47.819Z,7.67
2022-11-10T03:14:35.048Z,7.03
2022-11-10T03:17:22.720Z,6.78
2022-11-10T03:20:11.719Z,6.68
2022-11-10T03:23:03.851Z,7.00
2022-11-10T03:25:51.564Z,7.33
2022-11-10T03:28:40.160Z,5.78
2022-11-10T03:31:27.544Z,5.90
2022-11-10T03:34:16.429Z,6.03
2022-11-10T03:37:03.825Z,6.00
2022-11-10T03:39:51.233Z,6.40
2022-11-10T03:42:42.222Z,6.45
2022-11-10T03:45:30.603Z,6.85
2022-11-10T03:48:18.029Z,11.73
2022-11-10T03:51:05.327Z,8.95
2022-11-10T03:53:52.391Z,10.17
2022-11-10T03:56:39.852Z,10.23
2022-11-10T03:59:27.195Z,7.97
2022-11-10T04:02:15.957Z,7.03
2022-11-10T04:05:20.557Z,7.47
2022-11-10T04:08:33.519Z,7.13
2022-11-10T04:11:36.178Z,9.50
2022-11-10T04:14:40.736Z,7.40
2022-11-10T04:17:31.009Z,8.43
2022-11-10T04:20:19.543Z,7.78
2022-11-10T04:23:24.562Z,6.85
2022-11-10T04:26:30.693Z,6.50
2022-11-10T04:29:21.152Z,7.90
2022-11-10T04:32:08.414Z,7.15
2022-11-10T04:34:58.900Z,8.30
2022-11-10T04:37:48.078Z,7.28
2022-11-10T04:40:34.980Z,6.43
2022-11-10T04:43:23.349Z,6.38
2022-11-10T04:46:22.911Z,7.13
2022-11-10T04:49:11.752Z,6.68
2022-11-10T04:52:00.349Z,6.05
2022-11-10T04:54:47.726Z,7.40
2022-11-10T04:57:34.908Z,7.35
2022-11-10T05:00:22.607Z,7.25
2022-11-10T05:03:12.787Z,7.28
2022-11-10T05:06:00.360Z,10.40
2022-11-10T05:08:49.146Z,6.37
2022-11-10T05:11:36.593Z,8.35
2022-11-10T05:14:24.091Z,7.10
2022-11-10T05:17:11.153Z,8.25
2022-11-10T05:19:58.617Z,9.23
2022-11-10T05:23:07.673Z,10.73
2022-11-10T05:25:56.671Z,7.93
2022-11-10T05:28:46.491Z,9.05
2022-11-10T05:31:33.697Z,9.50
2022-11-10T05:34:20.955Z,9.55
2022-11-10T05:37:08.010Z,10.50
2022-11-10T05:39:55.856Z,9.80
2022-11-10T05:42:48.459Z,10.13
2022-11-10T05:45:37.378Z,10.63
2022-11-10T05:48:28.094Z,11.88
2022-11-10T05:51:16.913Z,11.33
2022-11-10T05:54:05.222Z,10.63
2022-11-10T05:56:53.688Z,10.27
2022-11-10T05:59:42.882Z,12.57
2022-11-10T06:02:33.663Z,14.02
2022-11-10T06:05:21.381Z,11.53
2022-11-10T06:08:11.379Z,10.98
2022-11-10T06:10:58.848Z,11.35
2022-11-10T06:13:46.009Z,10.73
2022-11-10T06:16:34.804Z,11.88
2022-11-10T06:19:29.510Z,13.23
2022-11-10T06:22:18.356Z,15.73
2022-11-10T06:25:07.591Z,16.30
2022-11-10T06:27:55.724Z,13.27
2022-11-10T06:30:45.349Z,14.35
2022-11-10T06:33:35.768Z,14.50
2022-11-10T06:36:23.493Z,15.25
2022-11-10T06:39:11.466Z,14.20
2022-11-10T06:41:58.646Z,16.00
2022-11-10T06:44:46.098Z,15.10
2022-11-10T06:47:34.052Z,16.23
2022-11-10T06:50:22.603Z,16.42
2022-11-10T06:53:11.337Z,15.48
2022-11-10T06:55:58.930Z,17.55
2022-11-10T06:58:46.085Z,17.30
2022-11-10T07:01:33.242Z,16.90
2022-11-10T07:04:20.923Z,15.52
2022-11-10T07:07:10.112Z,14.60
2022-11-10T07:09:58.282Z,12.90
2022-11-10T07:12:47.543Z,12.05
2022-11-10T07:15:35.045Z,13.50
2022-11-10T07:18:26.651Z,13.02
2022-11-10T07:21:14.222Z,14.88
2022-11-10T07:24:02.910Z,12.68
2022-11-10T07:26:50.186Z,13.25
2022-11-10T07:29:37.406Z,12.10
2022-11-10T07:32:24.718Z,11.75
2022-11-10T07:35:11.834Z,13.68
2022-11-10T07:38:02.964Z,12.40
2022-11-10T07:40:55.096Z,13.57
2022-11-10T07:43:42.441Z,12.67
2022-11-10T07:46:30.130Z,12.55
2022-11-10T07:49:17.904Z,12.02
2022-11-10T07:52:05.268Z,9.43
2022-11-10T07:54:52.665Z,9.43
2022-11-10T07:57:41.269Z,11.20
2022-11-10T08:00:31.227Z,11.77
2022-11-10T08:03:22.130Z,11.55
2022-11-10T08:06:10.218Z,9.90
2022-11-10T08:08:57.749Z,12.38
2022-11-10T08:11:44.598Z,11.60
2022-11-10T08:14:33.084Z,8.70
2022-11-10T08:17:20.112Z,9.05
2022-11-10T08:20:09.216Z,10.30
2022-11-10T08:23:01.252Z,10.57
2022-11-10T08:25:52.899Z,8.43
2022-11-10T08:28:40.276Z,8.55
2022-11-10T08:31:28.890Z,9.10
2022-11-10T08:34:16.239Z,10.57
2022-11-10T08:37:03.564Z,9.15
2022-11-10T08:39:51.084Z,8.80
2022-11-10T08:42:41.973Z,8.77
2022-11-10T08:45:30.024Z,10.48
2022-11-10T08:48:22.821Z,9.70
2022-11-10T08:51:10.015Z,11.57
2022-11-10T08:53:57.229Z,9.13
2022-11-10T08:56:45.071Z,9.52
2022-11-10T08:59:32.398Z,10.48
2022-11-10T09:02:33.185Z,9.07
2022-11-10T09:05:23.815Z,9.13
2022-11-10T09:08:12.259Z,9.87
2022-11-10T09:11:04.053Z,11.25
2022-11-10T09:13:52.783Z,11.20
2022-11-10T09:17:06.038Z,9.85
2022-11-10T09:19:56.193Z,10.15
2022-11-10T09:22:45.081Z,9.70
2022-11-10T09:25:32.627Z,10.10
2022-11-10T09:28:21.733Z,9.30
2022-11-10T09:31:11.933Z,9.75
2022-11-10T09:33:59.380Z,8.13
2022-11-10T09:36:52.602Z,7.83
2022-11-10T09:39:45.393Z,8.30
2022-11-10T09:42:42.442Z,8.52
2022-11-10T09:45:39.370Z,9.98
2022-11-10T09:48:32.520Z,12.50
2022-11-10T09:51:26.835Z,11.33
2022-11-10T09:54:35.855Z,9.90
2022-11-10T09:57:28.050Z,11.65
2022-11-10T10:00:27.815Z,12.10
2022-11-10T10:03:25.926Z,12.23
2022-11-10T10:06:16.414Z,8.33
2022-11-10T10:09:15.981Z,10.23
2022-11-10T10:12:20.451Z,11.18
2022-11-10T10:15:35.427Z,11.85
2022-11-10T10:18:32.979Z,10.00
2022-11-10T10:21:44.029Z,12.10
2022-11-10T10:24:34.842Z,11.30
2022-11-10T10:27:27.918Z,12.55
2022-11-10T10:30:20.030Z,13.88
2022-11-10T10:33:17.330Z,12.70
2022-11-10T10:36:11.450Z,13.53
2022-11-10T10:39:05.956Z,11.95
2022-11-10T10:41:53.614Z,13.45
2022-11-10T10:44:41.094Z,11.77
2022-11-10T10:47:38.973Z,11.80
2022-11-10T10:50:32.938Z,12.47
2022-11-10T10:53:23.515Z,12.57
2022-11-10T10:56:21.579Z,12.07
2022-11-10T10:59:22.456Z,10.82
2022-11-10T11:02:27.440Z,14.23
2022-11-10T11:05:17.252Z,13.47
2022-11-10T11:08:06.902Z,11.82
2022-11-10T11:10:54.258Z,13.98
2022-11-10T11:13:41.872Z,10.20
2022-11-10T11:16:29.144Z,12.65
2022-11-10T11:19:17.477Z,11.30
2022-11-10T11:22:43.815Z,15.05
2022-11-10T11:25:39.553Z,13.95
2022-11-10T11:28:38.601Z,12.52
2022-11-10T11:31:42.866Z,11.88
2022-11-10T11:34:41.161Z,13.30
2022-11-10T11:37:42.002Z,13.93
2022-11-10T11:40:41.891Z,13.75
2022-11-10T11:44:07.899Z,12.50
2022-11-10T11:47:06.234Z,13.60
2022-11-10T11:50:15.718Z,12.93
2022-11-10T11:53:30.853Z,11.98
2022-11-10T11:56:27.276Z,15.15
2022-11-10T11:59:39.199Z,13.30
2022-11-10T12:03:05.016Z,10.60
2022-11-10T12:06:25.176Z,15.37
2022-11-10T12:09:31.061Z,13.82
2022-11-10T12:12:48.515Z,11.88
2022-11-10T12:15:50.211Z,16.27
2022-11-10T12:18:43.587Z,12.88
2022-11-10T12:21:47.107Z,14.20
2022-11-10T12:24:52.499Z,16.08
2022-11-10T12:27:48.439Z,12.20
2022-11-10T12:30:38.587Z,15.93
2022-11-10T12:33:38.325Z,13.98
2022-11-10T12:36:29.592Z,13.60
2022-11-10T12:39:23.330Z,12.95
2022-11-10T12:42:19.508Z,16.13
2022-11-10T12:45:19.983Z,15.68
2022-11-10T12:48:12.553Z,16.42
2022-11-10T12:51:06.256Z,16.83
2022-11-10T12:53:56.494Z,18.00
2022-11-10T12:56:55.500Z,16.83
2022-11-10T12:59:53.479Z,16.35
2022-11-10T13:02:45.923Z,17.40
2022-11-10T13:05:46.768Z,15.33
2022-11-10T13:08:49.902Z,16.65
2022-11-10T13:11:40.978Z,14.50
2022-11-10T13:14:31.556Z,27.90
2022-11-10T13:17:56.953Z,17.10
2022-11-10T13:20:54.082Z,17.07
2022-11-10T13:24:22.649Z,14.57
2022-11-10T13:27:14.491Z,15.63
2022-11-10T13:30:02.319Z,20.67
2022-11-10T13:32:49.304Z,20.48
2022-11-10T13:35:55.908Z,17.20
2022-11-10T13:38:46.199Z,16.10
2022-11-10T13:41:35.986Z,17.35
2022-11-10T13:44:27.387Z,21.30
2022-11-10T13:47:51.369Z,21.85
2022-11-10T13:51:31.826Z,15.07
2022-11-10T13:54:55.281Z,19.80
2022-11-10T13:57:58.630Z,16.42
2022-11-10T14:00:51.672Z,17.60
2022-11-10T14:04:02.190Z,15.73
2022-11-10T14:06:55.055Z,15.60
2022-11-10T14:09:47.939Z,18.70
2022-11-10T14:12:44.185Z,21.25
2022-11-10T14:15:42.164Z,18.23
2022-11-10T14:18:41.125Z,14.57
2022-11-10T14:21:43.104Z,16.00
2022-11-10T14:24:36.796Z,16.38
2022-11-10T14:27:29.918Z,17.42
2022-11-10T14:30:26.443Z,17.75
2022-11-10T14:33:15.615Z,16.38
2022-11-10T14:36:06.252Z,19.50
2022-11-10T14:38:54.655Z,19.30
2022-11-10T14:41:51.531Z,18.30
2022-11-10T14:44:40.208Z,16.52
2022-11-10T14:47:31.232Z,15.52
2022-11-10T14:50:22.386Z,16.27
2022-11-10T14:53:22.652Z,19.40
2022-11-10T14:56:20.758Z,16.15
2022-11-10T14:59:14.672Z,17.30
2022-11-10T15:02:03.981Z,16.88
2022-11-10T15:04:53.768Z,19.00
2022-11-10T15:07:45.124Z,15.30
2022-11-10T15:10:48.206Z,16.85
2022-11-10T15:13:40.108Z,17.75
2022-11-10T15:16:31.404Z,18.15
2022-11-10T15:19:28.077Z,17.50
2022-11-10T15:22:24.191Z,20.40
2022-11-10T15:25:20.380Z,19.35
2022-11-10T15:28:27.980Z,16.83
2022-11-10T15:31:25.212Z,15.40
2022-11-10T15:34:42.396Z,20.40
2022-11-10T15:37:34.535Z,19.38
2022-11-10T15:40:37.072Z,17.05
2022-11-10T15:43:28.949Z,17.20
2022-11-10T15:46:20.719Z,14.02
2022-11-10T15:49:14.681Z,17.40
2022-11-10T15:52:08.716Z,15.57
2022-11-10T15:54:56.794Z,18.08
2022-11-10T15:57:44.955Z,19.60
2022-11-10T16:00:32.687Z,16.73
2022-11-10T16:03:24.274Z,23.20
2022-11-10T16:06:15.446Z,16.30
2022-11-10T16:09:15.969Z,21.65
2022-11-10T16:12:03.699Z,19.17
2022-11-10T16:14:55.386Z,19.67
2022-11-10T16:17:43.714Z,16.20
2022-11-10T16:20:31.537Z,20.73
2022-11-10T16:23:20.811Z,19.00
2022-11-10T16:26:17.466Z,22.10
2022-11-10T16:29:15.612Z,16.85
2022-11-10T16:32:03.922Z,22.97
2022-11-10T16:34:58.006Z,19.95
2022-11-10T16:37:46.137Z,18.83
2022-11-10T16:40:34.227Z,20.17
2022-11-10T16:43:24.356Z,22.05
2022-11-10T16:46:22.744Z,20.53
2022-11-10T16:49:31.160Z,19.90
2022-11-10T16:52:22.997Z,19.70
2022-11-10T16:55:15.031Z,16.50
2022-11-10T16:58:02.812Z,19.02
2022-11-10T17:00:52.739Z,19.17
2022-11-10T17:03:47.213Z,14.38
2022-11-10T17:06:40.551Z,18.70
2022-11-10T17:09:30.912Z,18.35
2022-11-10T17:12:23.519Z,17.30
2022-11-10T17:15:16.653Z,18.80
2022-11-10T17:18:08.686Z,17.98
2022-11-10T17:20:57.017Z,20.77
2022-11-10T17:23:49.574Z,18.08
2022-11-10T17:26:37.703Z,21.25
2022-11-10T17:29:29.464Z,17.17
2022-11-10T17:32:21.263Z,20.38
2022-11-10T17:35:14.151Z,20.25
2022-11-10T17:38:02.673Z,21.52
2022-11-10T17:40:51.249Z,21.10
2022-11-10T17:43:44.317Z,22.30
2022-11-10T17:46:33.457Z,21.67
2022-11-10T17:49:24.182Z,24.42
2022-11-10T17:52:21.620Z,28.23
2022-11-10T17:55:19.731Z,21.25
2022-11-10T17:58:11.349Z,26.20
2022-11-10T18:01:02.612Z,20.17
2022-11-10T18:03:51.649Z,22.52
2022-11-10T18:06:40.111Z,21.02
2022-11-10T18:09:29.589Z,22.00
2022-11-10T18:12:17.421Z,23.97
2022-11-10T18:15:06.002Z,23.65
2022-11-10T18:17:58.495Z,22.95
2022-11-10T18:20:48.798Z,22.30
2022-11-10T18:23:37.304Z,26.13
2022-11-10T18:26:29.744Z,24.43
2022-11-10T18:29:17.550Z,25.77
2022-11-10T18:32:06.390Z,26.10
2022-11-10T18:34:54.524Z,27.02
2022-11-10T18:37:45.608Z,25.02
2022-11-10T18:40:36.427Z,23.40
2022-11-10T18:43:25.862Z,21.63
2022-11-10T18:46:17.214Z,23.90
2022-11-10T18:49:07.751Z,26.80
2022-11-10T18:51:55.946Z,25.60
2022-11-10T18:54:44.145Z,27.87
2022-11-10T18:57:33.369Z,26.40
2022-11-10T19:00:23.195Z,23.88
2022-11-10T19:03:11.507Z,21.77
2022-11-10T19:06:00.294Z,22.38
2022-11-10T19:08:53.160Z,25.20
2022-11-10T19:11:40.642Z,23.70
2022-11-10T19:14:31.081Z,20.15
2022-11-10T19:17:20.834Z,26.10
2022-11-10T19:20:13.481Z,23.65
2022-11-10T19:23:03.742Z,23.57
2022-11-10T19:26:02.012Z,18.33
2022-11-10T19:28:50.218Z,21.45
2022-11-10T19:31:38.170Z,19.55
2022-11-10T19:34:27.787Z,20.52
2022-11-10T19:37:16.562Z,28.77
2022-11-10T19:40:08.899Z,21.08
2022-11-10T19:42:57.155Z,22.02
2022-11-10T19:45:46.754Z,21.02
2022-11-10T19:48:35.481Z,18.52
2022-11-10T19:51:26.979Z,22.07
2022-11-10T19:54:17.986Z,23.85
2022-11-10T19:57:09.100Z,19.05
2022-11-10T20:00:03.533Z,19.27
2022-11-10T20:02:51.468Z,18.42
2022-11-10T20:05:40.175Z,21.67
2022-11-10T20:08:30.376Z,21.17
2022-11-10T20:11:21.166Z,18.55
2022-11-10T20:14:09.361Z,18.83
2022-11-10T20:16:57.395Z,18.65
2022-11-10T20:19:45.373Z,21.30
2022-11-10T20:22:38.655Z,18.90
2022-11-10T20:25:27.987Z,21.30
2022-11-10T20:28:15.710Z,20.38
2022-11-10T20:31:04.833Z,21.63
2022-11-10T20:33:53.279Z,18.77
2022-11-10T20:36:41.080Z,24.35
2022-11-10T20:39:28.600Z,26.10
2022-11-10T20:42:17.096Z,18.50
2022-11-10T20:45:05.933Z,19.98
2022-11-10T20:47:53.311Z,21.77
2022-11-10T20:50:42.600Z,23.73
2022-11-10T20:53:31.814Z,24.50
2022-11-10T20:56:19.218Z,22.13
2022-11-10T20:59:09.356Z,19.77
2022-11-10T21:01:56.361Z,23.23
2022-11-10T21:04:44.061Z,21.20
2022-11-10T21:07:32.246Z,23.30
2022-11-10T21:10:19.528Z,23.25
2022-11-10T21:13:07.129Z,24.67
2022-11-10T21:15:57.930Z,23.97
2022-11-10T21:18:47.807Z,21.15
2022-11-10T21:21:35.227Z,24.40
2022-11-10T21:24:22.574Z,23.98
2022-11-10T21:27:12.229Z,25.88
2022-11-10T21:30:00.050Z,29.27
2022-11-10T21:32:48.796Z,22.70
2022-11-10T21:35:38.448Z,27.60
2022-11-10T21:38:25.888Z,26.23
2022-11-10T21:41:13.121Z,20.95
2022-11-10T21:44:00.863Z,23.90
2022-11-10T21:46:48.445Z,24.42
2022-11-10T21:49:36.958Z,25.00
2022-11-10T21:52:24.427Z,24.65
2022-11-10T21:55:15.758Z,24.63
2022-11-10T21:58:02.932Z,24.97
2022-11-10T22:00:50.996Z,24.75
2022-11-10T22:03:38.292Z,23.75
2022-11-10T22:06:47.965Z,23.55
2022-11-10T22:09:52.787Z,21.45
2022-11-10T22:13:00.003Z,20.63
2022-11-10T22:16:04.682Z,24.45
2022-11-10T22:18:52.177Z,23.98
2022-11-10T22:21:41.218Z,20.27
2022-11-10T22:24:29.202Z,23.63
2022-11-10T22:27:16.195Z,22.10
2022-11-10T22:30:03.652Z,19.60
2022-11-10T22:32:50.847Z,21.73
2022-11-10T22:35:46.867Z,21.67
2022-11-10T22:38:38.795Z,25.65
2022-11-10T22:41:43.368Z,20.73
2022-11-10T22:44:30.512Z,25.63
2022-11-10T22:47:17.990Z,23.13
2022-11-10T22:50:06.054Z,20.30
2022-11-10T22:52:53.134Z,24.58
2022-11-10T22:55:42.411Z,24.70
2022-11-10T22:58:30.011Z,24.50
2022-11-10T23:01:17.807Z,22.38
2022-11-10T23:04:08.788Z,27.85
2022-11-10T23:06:56.245Z,24.33
2022-11-10T23:09:43.831Z,25.47
2022-11-10T23:12:33.995Z,20.75
2022-11-10T23:15:22.023Z,20.90
2022-11-10T23:18:09.605Z,16.85
2022-11-10T23:20:59.318Z,18.05
2022-11-10T23:23:48.502Z,21.57
2022-11-10T23:26:36.266Z,23.13
2022-11-10T23:29:25.030Z,24.90
2022-11-10T23:32:12.368Z,22.73
2022-11-10T23:35:00.080Z,21.38
2022-11-10T23:37:47.696Z,20.77
2022-11-10T23:40:34.650Z,21.23
2022-11-10T23:43:21.996Z,21.80
2022-11-10T23:46:11.285Z,21.90
2022-11-10T23:48:58.764Z,21.67
2022-11-10T23:51:46.125Z,23.27
2022-11-10T23:54:33.514Z,20.35
2022-11-10T23:57:20.930Z,20.30
